sensor_id;sensor_type;location;lat;lon;timestamp;P1;durP1;ratioP1;P2;durP2;ratioP2
48789;SDS011;41718;51.980;5.734;2023-10-13T00:04:09;15.93;;;10.43;;
48789;SDS011;41718;51.980;5.734;2023-10-13T00:09:11;12.95;;;9.75;;
48789;SDS011;41718;51.980;5.734;2023-10-13T00:14:16;16.23;;;10.23;;
48789;SDS011;41718;51.980;5.734;2023-10-13T00:19:17;19.08;;;10.95;;
48789;SDS011;41718;51.980;5.734;2023-10-13T00:24:19;15.88;;;9.85;;
48789;SDS011;41718;51.980;5.734;2023-10-13T00:29:24;16.85;;;9.50;;
48789;SDS011;41718;51.980;5.734;2023-10-13T00:34:33;12.52;;;8.90;;
48789;SDS011;41718;51.980;5.734;2023-10-13T00:39:38;13.80;;;7.38;;
48789;SDS011;41718;51.980;5.734;2023-10-13T00:44:46;17.80;;;9.93;;
48789;SDS011;41718;51.980;5.734;2023-10-13T00:49:51;12.02;;;7.65;;
48789;SDS011;41718;51.980;5.734;2023-10-13T00:54:52;15.02;;;8.27;;
48789;SDS011;41718;51.980;5.734;2023-10-13T00:59:56;13.48;;;7.45;;
48789;SDS011;41718;51.980;5.734;2023-10-13T01:05:13;13.85;;;8.60;;
48789;SDS011;41718;51.980;5.734;2023-10-13T01:10:21;15.95;;;9.20;;
48789;SDS011;41718;51.980;5.734;2023-10-13T01:15:29;14.38;;;8.40;;
48789;SDS011;41718;51.980;5.734;2023-10-13T01:20:31;16.63;;;8.88;;
48789;SDS011;41718;51.980;5.734;2023-10-13T01:25:34;16.48;;;9.50;;
48789;SDS011;41718;51.980;5.734;2023-10-13T01:30:36;15.00;;;10.35;;
48789;SDS011;41718;51.980;5.734;2023-10-13T01:35:40;16.05;;;9.85;;
48789;SDS011;41718;51.980;5.734;2023-10-13T01:40:48;15.65;;;9.20;;
48789;SDS011;41718;51.980;5.734;2023-10-13T01:45:52;12.45;;;8.15;;
48789;SDS011;41718;51.980;5.734;2023-10-13T01:50:56;15.35;;;9.57;;
48789;SDS011;41718;51.980;5.734;2023-10-13T01:56:01;16.88;;;7.57;;
48789;SDS011;41718;51.980;5.734;2023-10-13T02:01:06;14.20;;;7.25;;
48789;SDS011;41718;51.980;5.734;2023-10-13T02:06:08;11.35;;;6.40;;
48789;SDS011;41718;51.980;5.734;2023-10-13T02:11:12;11.00;;;7.30;;
48789;SDS011;41718;51.980;5.734;2023-10-13T02:16:15;8.45;;;6.68;;
48789;SDS011;41718;51.980;5.734;2023-10-13T02:21:22;8.32;;;6.00;;
48789;SDS011;41718;51.980;5.734;2023-10-13T02:26:23;8.82;;;5.93;;
48789;SDS011;41718;51.980;5.734;2023-10-13T02:31:41;8.98;;;6.13;;
48789;SDS011;41718;51.980;5.734;2023-10-13T02:36:44;10.52;;;5.97;;
48789;SDS011;41718;51.980;5.734;2023-10-13T02:41:50;9.95;;;6.40;;
48789;SDS011;41718;51.980;5.734;2023-10-13T02:46:52;10.18;;;6.10;;
48789;SDS011;41718;51.980;5.734;2023-10-13T02:51:57;10.93;;;5.03;;
48789;SDS011;41718;51.980;5.734;2023-10-13T02:57:02;9.32;;;5.38;;
48789;SDS011;41718;51.980;5.734;2023-10-13T03:02:07;8.43;;;4.97;;
48789;SDS011;41718;51.980;5.734;2023-10-13T03:07:19;15.80;;;6.15;;
48789;SDS011;41718;51.980;5.734;2023-10-13T03:12:24;10.40;;;5.40;;
48789;SDS011;41718;51.980;5.734;2023-10-13T03:17:26;8.20;;;5.05;;
48789;SDS011;41718;51.980;5.734;2023-10-13T03:22:35;6.95;;;5.15;;
48789;SDS011;41718;51.980;5.734;2023-10-13T03:27:37;6.57;;;4.72;;
48789;SDS011;41718;51.980;5.734;2023-10-13T03:32:54;12.07;;;4.78;;
48789;SDS011;41718;51.980;5.734;2023-10-13T03:37:57;7.88;;;5.22;;
48789;SDS011;41718;51.980;5.734;2023-10-13T03:42:59;8.60;;;4.22;;
48789;SDS011;41718;51.980;5.734;2023-10-13T03:48:00;10.18;;;5.53;;
48789;SDS011;41718;51.980;5.734;2023-10-13T03:53:10;9.32;;;5.90;;
48789;SDS011;41718;51.980;5.734;2023-10-13T03:58:14;10.27;;;6.50;;
48789;SDS011;41718;51.980;5.734;2023-10-13T04:03:18;10.85;;;6.57;;
48789;SDS011;41718;51.980;5.734;2023-10-13T04:08:21;10.73;;;6.13;;
48789;SDS011;41718;51.980;5.734;2023-10-13T04:13:28;10.73;;;6.63;;
48789;SDS011;41718;51.980;5.734;2023-10-13T04:18:51;10.68;;;5.65;;
48789;SDS011;41718;51.980;5.734;2023-10-13T04:23:56;10.98;;;6.15;;
48789;SDS011;41718;51.980;5.734;2023-10-13T04:29:29;12.77;;;6.10;;
48789;SDS011;41718;51.980;5.734;2023-10-13T04:34:49;12.00;;;6.40;;
48789;SDS011;41718;51.980;5.734;2023-10-13T04:39:57;10.18;;;7.22;;
48789;SDS011;41718;51.980;5.734;2023-10-13T04:45:01;16.77;;;8.23;;
48789;SDS011;41718;51.980;5.734;2023-10-13T04:50:17;14.90;;;8.88;;
48789;SDS011;41718;51.980;5.734;2023-10-13T04:55:33;14.27;;;8.65;;
48789;SDS011;41718;51.980;5.734;2023-10-13T05:01:10;16.35;;;9.07;;
48789;SDS011;41718;51.980;5.734;2023-10-13T05:06:38;12.95;;;9.15;;
48789;SDS011;41718;51.980;5.734;2023-10-13T05:11:42;15.65;;;9.50;;
48789;SDS011;41718;51.980;5.734;2023-10-13T05:17:02;13.23;;;9.23;;
48789;SDS011;41718;51.980;5.734;2023-10-13T05:22:23;13.65;;;8.43;;
48789;SDS011;41718;51.980;5.734;2023-10-13T05:27:43;13.85;;;10.10;;
48789;SDS011;41718;51.980;5.734;2023-10-13T05:33:06;9.30;;;6.25;;
48789;SDS011;41718;51.980;5.734;2023-10-13T05:38:28;10.35;;;6.55;;
48789;SDS011;41718;51.980;5.734;2023-10-13T05:43:48;14.32;;;6.35;;
48789;SDS011;41718;51.980;5.734;2023-10-13T05:49:11;9.32;;;5.68;;
48789;SDS011;41718;51.980;5.734;2023-10-13T05:54:13;7.10;;;5.90;;
48789;SDS011;41718;51.980;5.734;2023-10-13T05:59:15;7.13;;;5.10;;
48789;SDS011;41718;51.980;5.734;2023-10-13T06:04:36;8.10;;;4.97;;
48789;SDS011;41718;51.980;5.734;2023-10-13T06:09:57;10.40;;;5.75;;
48789;SDS011;41718;51.980;5.734;2023-10-13T06:15:17;8.85;;;6.35;;
48789;SDS011;41718;51.980;5.734;2023-10-13T06:20:40;8.80;;;6.50;;
48789;SDS011;41718;51.980;5.734;2023-10-13T06:26:00;9.13;;;4.60;;
48789;SDS011;41718;51.980;5.734;2023-10-13T06:31:20;12.38;;;5.18;;
48789;SDS011;41718;51.980;5.734;2023-10-13T06:36:27;8.25;;;5.97;;
48789;SDS011;41718;51.980;5.734;2023-10-13T06:41:28;9.07;;;6.80;;
48789;SDS011;41718;51.980;5.734;2023-10-13T06:46:33;9.85;;;6.90;;
48789;SDS011;41718;51.980;5.734;2023-10-13T06:51:38;10.20;;;6.18;;
48789;SDS011;41718;51.980;5.734;2023-10-13T06:56:39;10.60;;;5.72;;
48789;SDS011;41718;51.980;5.734;2023-10-13T07:01:41;9.75;;;5.55;;
48789;SDS011;41718;51.980;5.734;2023-10-13T07:06:44;7.45;;;5.22;;
48789;SDS011;41718;51.980;5.734;2023-10-13T07:11:49;9.52;;;5.32;;
48789;SDS011;41718;51.980;5.734;2023-10-13T07:17:00;7.47;;;5.35;;
48789;SDS011;41718;51.980;5.734;2023-10-13T07:22:04;11.70;;;5.68;;
48789;SDS011;41718;51.980;5.734;2023-10-13T07:27:21;9.18;;;5.22;;
48789;SDS011;41718;51.980;5.734;2023-10-13T07:32:26;11.52;;;6.40;;
48789;SDS011;41718;51.980;5.734;2023-10-13T07:37:28;10.02;;;6.93;;
48789;SDS011;41718;51.980;5.734;2023-10-13T07:42:30;11.60;;;6.65;;
48789;SDS011;41718;51.980;5.734;2023-10-13T07:47:40;11.65;;;6.82;;
48789;SDS011;41718;51.980;5.734;2023-10-13T07:52:43;15.20;;;6.88;;
48789;SDS011;41718;51.980;5.734;2023-10-13T07:58:00;14.75;;;6.70;;
48789;SDS011;41718;51.980;5.734;2023-10-13T08:03:08;10.93;;;6.30;;
48789;SDS011;41718;51.980;5.734;2023-10-13T08:08:16;11.55;;;5.57;;
48789;SDS011;41718;51.980;5.734;2023-10-13T08:13:18;9.80;;;5.95;;
48789;SDS011;41718;51.980;5.734;2023-10-13T08:18:22;11.93;;;6.13;;
48789;SDS011;41718;51.980;5.734;2023-10-13T08:23:34;9.77;;;5.07;;
48789;SDS011;41718;51.980;5.734;2023-10-13T08:28:56;11.73;;;5.97;;
48789;SDS011;41718;51.980;5.734;2023-10-13T08:33:59;16.63;;;7.68;;
48789;SDS011;41718;51.980;5.734;2023-10-13T08:39:08;12.27;;;6.22;;
48789;SDS011;41718;51.980;5.734;2023-10-13T08:44:44;11.50;;;4.70;;
48789;SDS011;41718;51.980;5.734;2023-10-13T08:49:53;11.82;;;5.32;;
48789;SDS011;41718;51.980;5.734;2023-10-13T08:55:12;15.63;;;4.90;;
48789;SDS011;41718;51.980;5.734;2023-10-13T09:00:34;14.80;;;5.00;;
48789;SDS011;41718;51.980;5.734;2023-10-13T09:05:55;7.55;;;4.70;;
48789;SDS011;41718;51.980;5.734;2023-10-13T09:11:03;10.27;;;4.95;;
48789;SDS011;41718;51.980;5.734;2023-10-13T09:16:15;10.77;;;5.30;;
48789;SDS011;41718;51.980;5.734;2023-10-13T09:21:41;11.95;;;5.10;;
48789;SDS011;41718;51.980;5.734;2023-10-13T09:26:43;11.35;;;4.50;;
48789;SDS011;41718;51.980;5.734;2023-10-13T09:31:47;10.63;;;4.72;;
48789;SDS011;41718;51.980;5.734;2023-10-13T09:37:01;10.43;;;4.80;;
48789;SDS011;41718;51.980;5.734;2023-10-13T09:42:06;10.48;;;4.95;;
48789;SDS011;41718;51.980;5.734;2023-10-13T09:47:11;7.55;;;4.75;;
48789;SDS011;41718;51.980;5.734;2023-10-13T09:52:19;9.90;;;4.20;;
48789;SDS011;41718;51.980;5.734;2023-10-13T09:57:21;9.82;;;5.15;;
48789;SDS011;41718;51.980;5.734;2023-10-13T10:02:25;13.75;;;5.85;;
48789;SDS011;41718;51.980;5.734;2023-10-13T10:07:28;7.45;;;4.65;;
48789;SDS011;41718;51.980;5.734;2023-10-13T10:12:48;15.50;;;5.15;;
48789;SDS011;41718;51.980;5.734;2023-10-13T10:17:54;13.15;;;4.95;;
48789;SDS011;41718;51.980;5.734;2023-10-13T10:22:57;9.98;;;5.00;;
48789;SDS011;41718;51.980;5.734;2023-10-13T10:28:07;13.55;;;5.13;;
48789;SDS011;41718;51.980;5.734;2023-10-13T10:33:09;9.32;;;5.07;;
48789;SDS011;41718;51.980;5.734;2023-10-13T10:38:17;16.50;;;5.75;;
48789;SDS011;41718;51.980;5.734;2023-10-13T10:43:19;8.57;;;4.50;;
48789;SDS011;41718;51.980;5.734;2023-10-13T10:48:33;10.63;;;5.15;;
48789;SDS011;41718;51.980;5.734;2023-10-13T10:53:40;12.77;;;4.85;;
48789;SDS011;41718;51.980;5.734;2023-10-13T10:58:45;12.13;;;5.22;;
48789;SDS011;41718;51.980;5.734;2023-10-13T11:03:58;10.13;;;4.35;;
48789;SDS011;41718;51.980;5.734;2023-10-13T11:09:10;10.13;;;5.60;;
48789;SDS011;41718;51.980;5.734;2023-10-13T11:14:25;8.55;;;5.15;;
48789;SDS011;41718;51.980;5.734;2023-10-13T11:19:37;13.00;;;5.38;;
48789;SDS011;41718;51.980;5.734;2023-10-13T11:24:40;10.05;;;4.32;;
48789;SDS011;41718;51.980;5.734;2023-10-13T11:29:43;8.27;;;4.43;;
48789;SDS011;41718;51.980;5.734;2023-10-13T11:34:53;21.20;;;6.00;;
48789;SDS011;41718;51.980;5.734;2023-10-13T11:39:56;8.07;;;4.80;;
48789;SDS011;41718;51.980;5.734;2023-10-13T11:44:57;16.90;;;5.78;;
48789;SDS011;41718;51.980;5.734;2023-10-13T11:50:19;14.38;;;5.22;;
48789;SDS011;41718;51.980;5.734;2023-10-13T11:55:34;12.50;;;6.03;;
48789;SDS011;41718;51.980;5.734;2023-10-13T12:00:36;9.95;;;4.60;;
48789;SDS011;41718;51.980;5.734;2023-10-13T12:05:55;14.98;;;6.13;;
48789;SDS011;41718;51.980;5.734;2023-10-13T12:11:16;10.65;;;5.90;;
48789;SDS011;41718;51.980;5.734;2023-10-13T12:16:32;10.07;;;5.15;;
48789;SDS011;41718;51.980;5.734;2023-10-13T12:21:36;16.48;;;5.25;;
48789;SDS011;41718;51.980;5.734;2023-10-13T12:26:39;9.48;;;5.78;;
48789;SDS011;41718;51.980;5.734;2023-10-13T12:31:43;11.57;;;5.53;;
48789;SDS011;41718;51.980;5.734;2023-10-13T12:36:52;17.90;;;5.32;;
48789;SDS011;41718;51.980;5.734;2023-10-13T12:42:08;8.00;;;5.10;;
48789;SDS011;41718;51.980;5.734;2023-10-13T12:47:29;10.10;;;5.60;;
48789;SDS011;41718;51.980;5.734;2023-10-13T12:53:09;12.02;;;6.05;;
48789;SDS011;41718;51.980;5.734;2023-10-13T13:03:16;15.23;;;6.38;;
48789;SDS011;41718;51.980;5.734;2023-10-13T13:08:18;14.35;;;5.57;;
48789;SDS011;41718;51.980;5.734;2023-10-13T13:13:24;12.20;;;6.47;;
48789;SDS011;41718;51.980;5.734;2023-10-13T13:18:26;11.10;;;5.28;;
48789;SDS011;41718;51.980;5.734;2023-10-13T13:23:28;12.48;;;5.45;;
48789;SDS011;41718;51.980;5.734;2023-10-13T13:28:32;10.23;;;6.25;;
48789;SDS011;41718;51.980;5.734;2023-10-13T13:33:39;12.85;;;5.25;;
48789;SDS011;41718;51.980;5.734;2023-10-13T13:38:44;13.77;;;5.00;;
48789;SDS011;41718;51.980;5.734;2023-10-13T13:43:48;10.48;;;5.88;;
48789;SDS011;41718;51.980;5.734;2023-10-13T13:48:53;13.88;;;5.55;;
48789;SDS011;41718;51.980;5.734;2023-10-13T13:54:02;14.73;;;5.07;;
48789;SDS011;41718;51.980;5.734;2023-10-13T14:04:16;6.60;;;4.30;;
48789;SDS011;41718;51.980;5.734;2023-10-13T14:09:25;12.88;;;5.25;;
48789;SDS011;41718;51.980;5.734;2023-10-13T14:14:41;13.90;;;5.65;;
48789;SDS011;41718;51.980;5.734;2023-10-13T14:19:50;9.88;;;4.82;;
48789;SDS011;41718;51.980;5.734;2023-10-13T14:24:52;13.48;;;5.57;;
48789;SDS011;41718;51.980;5.734;2023-10-13T14:29:57;9.50;;;5.15;;
48789;SDS011;41718;51.980;5.734;2023-10-13T14:34:59;6.90;;;5.05;;
48789;SDS011;41718;51.980;5.734;2023-10-13T14:40:01;7.15;;;3.72;;
48789;SDS011;41718;51.980;5.734;2023-10-13T14:45:04;13.45;;;5.70;;
48789;SDS011;41718;51.980;5.734;2023-10-13T14:50:13;11.82;;;4.55;;
48789;SDS011;41718;51.980;5.734;2023-10-13T14:55:21;14.90;;;5.28;;
48789;SDS011;41718;51.980;5.734;2023-10-13T15:00:34;9.27;;;4.90;;
48789;SDS011;41718;51.980;5.734;2023-10-13T15:05:39;10.55;;;5.03;;
48789;SDS011;41718;51.980;5.734;2023-10-13T15:10:44;11.43;;;4.90;;
48789;SDS011;41718;51.980;5.734;2023-10-13T15:15:58;10.43;;;5.07;;
48789;SDS011;41718;51.980;5.734;2023-10-13T15:21:02;7.75;;;4.05;;
48789;SDS011;41718;51.980;5.734;2023-10-13T15:26:07;14.57;;;5.10;;
48789;SDS011;41718;51.980;5.734;2023-10-13T15:31:29;11.75;;;4.43;;
48789;SDS011;41718;51.980;5.734;2023-10-13T15:36:34;7.72;;;3.90;;
48789;SDS011;41718;51.980;5.734;2023-10-13T15:41:37;7.35;;;4.32;;
48789;SDS011;41718;51.980;5.734;2023-10-13T15:46:41;10.57;;;4.60;;
48789;SDS011;41718;51.980;5.734;2023-10-13T15:51:49;14.50;;;5.53;;
48789;SDS011;41718;51.980;5.734;2023-10-13T15:56:53;7.72;;;5.32;;
48789;SDS011;41718;51.980;5.734;2023-10-13T16:01:56;11.07;;;4.53;;
48789;SDS011;41718;51.980;5.734;2023-10-13T16:06:59;12.50;;;5.13;;
48789;SDS011;41718;51.980;5.734;2023-10-13T16:12:01;9.85;;;5.47;;
48789;SDS011;41718;51.980;5.734;2023-10-13T16:17:02;14.38;;;5.35;;
48789;SDS011;41718;51.980;5.734;2023-10-13T16:22:05;7.28;;;4.97;;
48789;SDS011;41718;51.980;5.734;2023-10-13T16:27:11;11.07;;;6.47;;
48789;SDS011;41718;51.980;5.734;2023-10-13T16:32:15;10.48;;;4.90;;
48789;SDS011;41718;51.980;5.734;2023-10-13T16:37:18;10.75;;;4.95;;
48789;SDS011;41718;51.980;5.734;2023-10-13T16:42:19;11.13;;;5.25;;
48789;SDS011;41718;51.980;5.734;2023-10-13T16:47:21;11.38;;;5.43;;
48789;SDS011;41718;51.980;5.734;2023-10-13T16:52:22;12.75;;;4.85;;
48789;SDS011;41718;51.980;5.734;2023-10-13T16:57:25;17.02;;;6.53;;
48789;SDS011;41718;51.980;5.734;2023-10-13T17:02:27;8.20;;;5.18;;
48789;SDS011;41718;51.980;5.734;2023-10-13T17:07:29;11.18;;;4.20;;
48789;SDS011;41718;51.980;5.734;2023-10-13T17:12:31;11.57;;;5.18;;
48789;SDS011;41718;51.980;5.734;2023-10-13T17:17:34;8.88;;;4.55;;
48789;SDS011;41718;51.980;5.734;2023-10-13T17:22:36;10.55;;;5.75;;
48789;SDS011;41718;51.980;5.734;2023-10-13T17:27:38;10.48;;;5.50;;
48789;SDS011;41718;51.980;5.734;2023-10-13T17:32:41;14.70;;;6.03;;
48789;SDS011;41718;51.980;5.734;2023-10-13T17:37:46;15.43;;;7.07;;
48789;SDS011;41718;51.980;5.734;2023-10-13T17:42:48;12.07;;;5.68;;
48789;SDS011;41718;51.980;5.734;2023-10-13T17:47:50;11.75;;;5.75;;
48789;SDS011;41718;51.980;5.734;2023-10-13T17:52:52;13.35;;;6.20;;
48789;SDS011;41718;51.980;5.734;2023-10-13T17:57:54;14.43;;;7.65;;
48789;SDS011;41718;51.980;5.734;2023-10-13T18:02:56;12.70;;;5.93;;
48789;SDS011;41718;51.980;5.734;2023-10-13T18:07:59;7.95;;;5.63;;
48789;SDS011;41718;51.980;5.734;2023-10-13T18:13:00;9.65;;;5.97;;
48789;SDS011;41718;51.980;5.734;2023-10-13T18:18:02;11.25;;;5.25;;
48789;SDS011;41718;51.980;5.734;2023-10-13T18:23:04;12.15;;;6.35;;
48789;SDS011;41718;51.980;5.734;2023-10-13T18:28:06;10.27;;;6.10;;
48789;SDS011;41718;51.980;5.734;2023-10-13T18:33:08;15.68;;;7.25;;
48789;SDS011;41718;51.980;5.734;2023-10-13T18:38:13;13.00;;;5.43;;
48789;SDS011;41718;51.980;5.734;2023-10-13T18:43:15;14.60;;;6.50;;
48789;SDS011;41718;51.980;5.734;2023-10-13T18:48:16;10.57;;;5.95;;
48789;SDS011;41718;51.980;5.734;2023-10-13T18:53:18;10.68;;;6.55;;
48789;SDS011;41718;51.980;5.734;2023-10-13T18:58:20;11.13;;;6.05;;
48789;SDS011;41718;51.980;5.734;2023-10-13T19:03:22;8.13;;;6.05;;
48789;SDS011;41718;51.980;5.734;2023-10-13T19:08:28;10.43;;;6.47;;
48789;SDS011;41718;51.980;5.734;2023-10-13T19:13:36;11.55;;;8.50;;
48789;SDS011;41718;51.980;5.734;2023-10-13T19:18:39;11.20;;;7.00;;
48789;SDS011;41718;51.980;5.734;2023-10-13T19:23:48;12.65;;;7.80;;
48789;SDS011;41718;51.980;5.734;2023-10-13T19:28:52;14.88;;;7.57;;
48789;SDS011;41718;51.980;5.734;2023-10-13T19:39:07;13.00;;;6.45;;
48789;SDS011;41718;51.980;5.734;2023-10-13T19:44:10;15.18;;;6.85;;
48789;SDS011;41718;51.980;5.734;2023-10-13T19:49:15;14.77;;;6.72;;
48789;SDS011;41718;51.980;5.734;2023-10-13T19:54:20;12.82;;;6.40;;
48789;SDS011;41718;51.980;5.734;2023-10-13T19:59:22;10.77;;;6.47;;
48789;SDS011;41718;51.980;5.734;2023-10-13T20:04:24;15.23;;;6.75;;
48789;SDS011;41718;51.980;5.734;2023-10-13T20:09:29;14.85;;;7.28;;
48789;SDS011;41718;51.980;5.734;2023-10-13T20:14:31;15.33;;;7.57;;
48789;SDS011;41718;51.980;5.734;2023-10-13T20:19:33;13.57;;;6.55;;
48789;SDS011;41718;51.980;5.734;2023-10-13T20:24:39;10.00;;;6.53;;
48789;SDS011;41718;51.980;5.734;2023-10-13T20:29:41;12.75;;;7.63;;
48789;SDS011;41718;51.980;5.734;2023-10-13T20:34:43;12.68;;;6.97;;
48789;SDS011;41718;51.980;5.734;2023-10-13T20:39:45;13.35;;;7.70;;
48789;SDS011;41718;51.980;5.734;2023-10-13T20:44:46;10.57;;;5.60;;
48789;SDS011;41718;51.980;5.734;2023-10-13T20:49:49;9.93;;;5.35;;
48789;SDS011;41718;51.980;5.734;2023-10-13T20:54:51;7.47;;;2.80;;
48789;SDS011;41718;51.980;5.734;2023-10-13T20:59:54;2.97;;;2.25;;
48789;SDS011;41718;51.980;5.734;2023-10-13T21:04:57;4.55;;;1.60;;
48789;SDS011;41718;51.980;5.734;2023-10-13T21:09:59;3.65;;;3.05;;
48789;SDS011;41718;51.980;5.734;2023-10-13T21:15:01;4.40;;;1.45;;
48789;SDS011;41718;51.980;5.734;2023-10-13T21:20:03;4.13;;;2.33;;
48789;SDS011;41718;51.980;5.734;2023-10-13T21:25:06;3.08;;;2.13;;
48789;SDS011;41718;51.980;5.734;2023-10-13T21:30:08;9.63;;;3.67;;
48789;SDS011;41718;51.980;5.734;2023-10-13T21:35:12;4.82;;;3.75;;
48789;SDS011;41718;51.980;5.734;2023-10-13T21:40:15;12.93;;;5.25;;
48789;SDS011;41718;51.980;5.734;2023-10-13T21:45:20;10.27;;;6.68;;
48789;SDS011;41718;51.980;5.734;2023-10-13T21:50:29;7.20;;;4.50;;
48789;SDS011;41718;51.980;5.734;2023-10-13T21:55:32;10.43;;;4.45;;
48789;SDS011;41718;51.980;5.734;2023-10-13T22:00:34;6.63;;;3.08;;
48789;SDS011;41718;51.980;5.734;2023-10-13T22:05:36;4.10;;;2.55;;
48789;SDS011;41718;51.980;5.734;2023-10-13T22:10:38;9.45;;;4.07;;
48789;SDS011;41718;51.980;5.734;2023-10-13T22:15:40;6.43;;;2.30;;
48789;SDS011;41718;51.980;5.734;2023-10-13T22:20:42;7.88;;;3.08;;
48789;SDS011;41718;51.980;5.734;2023-10-13T22:25:46;6.63;;;2.10;;
48789;SDS011;41718;51.980;5.734;2023-10-13T22:30:47;6.40;;;2.00;;
48789;SDS011;41718;51.980;5.734;2023-10-13T22:35:50;6.63;;;2.47;;
48789;SDS011;41718;51.980;5.734;2023-10-13T22:40:54;3.72;;;1.98;;
48789;SDS011;41718;51.980;5.734;2023-10-13T22:45:55;3.13;;;1.10;;
48789;SDS011;41718;51.980;5.734;2023-10-13T22:50:57;1.25;;;1.13;;
48789;SDS011;41718;51.980;5.734;2023-10-13T22:55:59;3.25;;;0.82;;
48789;SDS011;41718;51.980;5.734;2023-10-13T23:01:01;3.78;;;1.38;;
48789;SDS011;41718;51.980;5.734;2023-10-13T23:06:04;1.23;;;0.70;;
48789;SDS011;41718;51.980;5.734;2023-10-13T23:11:11;3.42;;;1.13;;
48789;SDS011;41718;51.980;5.734;2023-10-13T23:16:23;1.90;;;0.70;;
48789;SDS011;41718;51.980;5.734;2023-10-13T23:21:26;1.55;;;1.13;;
48789;SDS011;41718;51.980;5.734;2023-10-13T23:26:28;0.85;;;0.60;;
48789;SDS011;41718;51.980;5.734;2023-10-13T23:31:30;2.13;;;0.70;;
48789;SDS011;41718;51.980;5.734;2023-10-13T23:36:32;1.52;;;0.57;;
48789;SDS011;41718;51.980;5.734;2023-10-13T23:41:33;3.65;;;0.57;;
48789;SDS011;41718;51.980;5.734;2023-10-13T23:46:38;4.43;;;1.80;;
48789;SDS011;41718;51.980;5.734;2023-10-13T23:51:45;2.15;;;0.85;;
48789;SDS011;41718;51.980;5.734;2023-10-13T23:56:51;1.27;;;0.63;;
